Time;durP1;ratioP1;P1;durP2;ratioP2;P2;SDS_P1;SDS_P2;PMS_P1;PMS_P2;Temp;Humidity;BMP_temperature;BMP_pressure;BME280_temperature;BME280_humidity;BME280_pressure;Samples;Min_cycle;Max_cycle;Signal;HPM_P1;HPM_P2
2022/12/08 00:00:48;;;;;;;18.17;8.77;;;;;;;6.96;85.58;101319.56;4940131;28;20034;-79
2022/12/08 00:03:14;;;;;;;18.13;10.23;;;;;;;6.64;85.78;101263.72;4956335;28;20042;-80
2022/12/08 00:11:16;;;;;;;11.93;8.13;;;;;;;6.83;86.30;101311.28;4973197;28;19964;-79
2022/12/08 00:13:42;;;;;;;12.88;6.32;;;;;;;6.85;86.58;101320.66;4939656;28;20109;-79
2022/12/08 00:16:07;;;;;;;12.13;8.63;;;;;;;6.89;86.15;101319.72;4939809;28;20049;-79
2022/12/08 00:18:33;;;;;;;21.33;8.20;;;;;;;6.92;85.94;101316.22;4923918;28;20058;-80
2022/12/08 00:20:58;;;;;;;12.80;9.15;;;;;;;6.97;85.85;101327.25;4956096;28;20051;-79
2022/12/08 00:23:24;;;;;;;19.80;10.27;;;;;;;7.03;85.61;101327.09;4972953;28;20034;-79
2022/12/08 00:25:49;;;;;;;12.05;7.60;;;;;;;6.87;85.51;101303.44;4955708;28;20034;-80
2022/12/08 00:28:15;;;;;;;18.45;9.27;;;;;;;6.94;85.72;101319.59;4939423;28;20065;-79
2022/12/08 00:30:41;;;;;;;12.85;7.07;;;;;;;6.96;86.04;101307.53;4938963;28;20059;-79
2022/12/08 00:33:06;;;;;;;15.27;9.23;;;;;;;6.97;86.13;101304.09;4939631;28;20105;-79
2022/12/08 00:35:32;;;;;;;15.38;8.13;;;;;;;6.97;86.09;101309.22;4956109;28;20039;-79
2022/12/08 00:37:57;;;;;;;20.02;6.57;;;;;;;7.06;85.88;101324.47;4923857;28;20034;-79
2022/12/08 00:40:22;;;;;;;14.38;7.78;;;;;;;7.00;85.63;101319.47;4939700;28;20019;-79
2022/12/08 00:42:48;;;;;;;20.23;10.10;;;;;;;6.96;85.75;101317.84;4923266;28;20493;-79
2022/12/08 00:45:13;;;;;;;17.95;9.70;;;;;;;6.93;85.79;101317.91;4955325;28;20027;-80
2022/12/08 00:47:39;;;;;;;14.93;8.38;;;;;;;6.73;86.52;101278.94;4955513;28;20506;-79
2022/12/08 00:50:05;;;;;;;18.08;7.72;;;;;;;6.96;86.64;101312.69;4972419;28;20038;-80
2022/12/08 00:52:31;;;;;;;13.75;7.80;;;;;;;7.03;86.03;101321.13;4939570;28;20033;-80
2022/12/08 00:54:56;;;;;;;17.17;9.05;;;;;;;6.90;86.01;101289.69;4955306;28;20027;-80
2022/12/08 00:57:22;;;;;;;20.77;9.68;;;;;;;6.87;85.87;101287.19;4939039;28;20444;-79
2022/12/08 00:59:47;;;;;;;17.60;10.50;;;;;;;7.05;86.67;101311.63;4939246;28;20031;-79
2022/12/08 01:02:13;;;;;;;13.70;9.13;;;;;;;7.05;86.28;101317.63;4971378;28;20034;-79
2022/12/08 01:04:38;;;;;;;13.10;8.15;;;;;;;7.00;85.67;101309.19;4939264;28;20090;-80
2022/12/08 01:07:04;;;;;;;17.52;9.10;;;;;;;6.93;85.20;101287.03;4939128;28;20121;-80
2022/12/08 01:09:29;;;;;;;13.85;8.50;;;;;;;6.84;85.75;101279.53;4954893;28;20432;-79
2022/12/08 01:11:55;;;;;;;18.25;10.48;;;;;;;7.02;85.75;101328.00;4954943;28;20030;-79
2022/12/08 01:14:20;;;;;;;17.45;9.20;;;;;;;6.97;86.28;101322.09;4955405;28;20039;-79
2022/12/08 01:16:46;;;;;;;26.00;12.50;;;;;;;6.92;86.74;101321.38;4954759;28;20197;-79
2022/12/08 01:19:12;;;;;;;17.20;9.73;;;;;;;6.93;86.72;101317.91;4955161;28;20073;-79
2022/12/08 01:21:38;;;;;;;24.48;9.32;;;;;;;6.93;86.44;101312.78;4939111;28;20118;-79
2022/12/08 01:24:04;;;;;;;17.90;10.00;;;;;;;6.75;86.90;101284.91;4939097;28;20086;-79
2022/12/08 01:26:30;;;;;;;17.85;8.75;;;;;;;6.67;87.31;101264.47;4954475;28;20030;-79
2022/12/08 01:28:56;;;;;;;19.52;10.90;;;;;;;7.00;86.85;101303.19;4954739;28;20133;-79
2022/12/08 01:31:22;;;;;;;20.25;9.32;;;;;;;7.04;86.65;101305.66;4954890;28;20114;-79
2022/12/08 01:33:48;;;;;;;17.83;10.02;;;;;;;7.03;86.40;101314.25;4939046;28;20023;-80
2022/12/08 01:36:24;;;;;;;22.23;10.70;;;;;;;6.89;87.03;101285.44;4954788;28;20508;-79
2022/12/08 01:38:50;;;;;;;18.92;9.55;;;;;;;7.05;86.83;101301.34;4954415;28;20037;-79
2022/12/08 01:41:17;;;;;;;16.95;8.80;;;;;;;7.02;86.62;101304.84;4938619;28;20034;-79
2022/12/08 01:44:09;;;;;;;14.23;8.38;;;;;;;7.01;87.19;101312.59;4954626;28;20023;-79
2022/12/08 01:46:39;;;;;;;10.50;7.03;;;;;;;6.97;86.57;101319.53;4956045;28;20122;-79
2022/12/08 01:49:13;;;;;;;11.93;7.40;;;;;;;6.92;87.21;101305.94;4938879;28;20105;-79
2022/12/08 01:51:48;;;;;;;14.65;7.38;;;;;;;6.94;87.00;101304.16;4939000;28;20039;-79
2022/12/08 01:54:13;;;;;;;7.70;5.40;;;;;;;6.85;87.05;101294.09;4938345;28;20072;-80
2022/12/08 01:56:43;;;;;;;10.65;7.68;;;;;;;6.92;87.20;101308.50;4954641;28;20469;-79
2022/12/08 01:59:08;;;;;;;9.43;5.57;;;;;;;7.00;86.78;101314.34;4939017;28;20086;-79
2022/12/08 02:01:33;;;;;;;9.80;5.70;;;;;;;6.94;86.54;101293.88;4938613;28;20027;-79
2022/12/08 02:04:00;;;;;;;12.70;6.25;;;;;;;7.00;86.41;101311.75;4938560;28;20516;-79
2022/12/08 02:06:31;;;;;;;10.95;7.03;;;;;;;6.79;85.80;101265.97;4938595;28;20117;-79
2022/12/08 02:08:57;;;;;;;10.35;6.72;;;;;;;6.80;86.27;101268.50;4954197;28;20026;-79
2022/12/08 02:11:22;;;;;;;12.40;7.22;;;;;;;6.80;86.50;101267.66;4954487;28;20023;-79
2022/12/08 02:13:48;;;;;;;8.45;6.13;;;;;;;7.05;86.50;101302.19;4954516;28;20034;-79
2022/12/08 02:16:22;;;;;;;8.40;6.20;;;;;;;6.94;86.58;101286.16;4954439;28;20039;-80
2022/12/08 02:19:16;;;;;;;16.10;5.63;;;;;;;7.12;86.28;101303.75;4938322;28;20053;-79
2022/12/08 02:22:23;;;;;;;7.10;4.80;;;;;;;7.09;86.24;101298.69;4971364;28;20063;-79
2022/12/08 02:25:00;;;;;;;8.18;5.28;;;;;;;7.07;86.29;101310.72;4938495;28;20074;-79
2022/12/08 02:27:47;;;;;;;13.20;5.55;;;;;;;6.99;86.31;101291.22;4971519;28;20043;-79
2022/12/08 02:30:13;;;;;;;9.82;6.05;;;;;;;7.11;86.29;101303.78;4971584;28;20484;-79
2022/12/08 02:32:56;;;;;;;11.15;5.88;;;;;;;6.86;85.93;101270.91;4971752;28;20037;-79
2022/12/08 02:35:24;;;;;;;15.80;5.55;;;;;;;6.95;86.33;101293.00;4954673;28;20065;-79
2022/12/08 02:37:58;;;;;;;8.20;5.72;;;;;;;6.93;86.51;101289.63;4937904;28;20043;-79
2022/12/08 02:40:32;;;;;;;13.68;7.10;;;;;;;7.08;86.34;101312.44;4954173;28;20030;-79
2022/12/08 02:43:01;;;;;;;12.18;5.95;;;;;;;7.04;86.30;101305.66;4953925;28;20030;-79
2022/12/08 02:45:35;;;;;;;11.15;5.85;;;;;;;7.02;86.29;101302.28;4938424;28;20056;-79
2022/12/08 02:48:00;;;;;;;12.50;6.00;;;;;;;7.02;86.28;101297.13;4922940;28;20396;-79
2022/12/08 02:50:27;;;;;;;12.07;5.32;;;;;;;7.04;86.28;101300.50;4954208;28;20023;-79
2022/12/08 02:52:52;;;;;;;8.35;4.57;;;;;;;6.79;86.15;101269.38;4922597;28;20018;-80
2022/12/08 02:55:26;;;;;;;9.43;3.85;;;;;;;7.01;86.10;101300.59;4974621;28;20038;-80
2022/12/08 02:58:12;;;;;;;11.43;5.95;;;;;;;7.01;86.39;101313.44;4942294;28;20111;-79
2022/12/08 03:01:06;;;;;;;9.25;4.18;;;;;;;6.99;86.44;101312.63;4957733;28;20114;-79
2022/12/08 03:03:44;;;;;;;10.73;5.25;;;;;;;6.97;86.36;101309.22;4929456;28;20346;-80
2022/12/08 03:06:31;;;;;;;10.55;5.25;;;;;;;7.02;86.21;101312.56;4941638;28;20030;-79
2022/12/08 03:08:59;;;;;;;7.70;6.28;;;;;;;6.95;86.11;101300.72;4919214;28;20623;-80
2022/12/08 03:11:33;;;;;;;13.25;6.40;;;;;;;6.86;86.98;101290.63;4941676;28;20031;-79
2022/12/08 03:13:59;;;;;;;11.30;5.00;;;;;;;6.94;86.53;101293.88;4941540;28;20023;-79
2022/12/08 03:16:29;;;;;;;13.95;6.40;;;;;;;6.95;86.67;101300.72;4956983;28;20084;-80
2022/12/08 03:19:17;;;;;;;12.23;5.30;;;;;;;6.88;86.17;101287.16;4957545;28;20034;-80
2022/12/08 03:21:43;;;;;;;9.40;4.43;;;;;;;6.98;85.69;101298.09;4926810;28;20076;-79
2022/12/08 03:24:08;;;;;;;7.68;4.90;;;;;;;6.92;86.09;101290.50;4941135;28;20477;-79
2022/12/08 03:26:38;;;;;;;7.97;5.05;;;;;;;6.99;85.89;101289.50;4940717;28;20085;-79
2022/12/08 03:29:04;;;;;;;10.63;7.10;;;;;;;6.92;85.91;101284.50;4957117;28;20130;-80
2022/12/08 03:31:31;;;;;;;9.40;5.22;;;;;;;6.79;85.89;101286.53;4957230;28;20051;-79
2022/12/08 03:33:57;;;;;;;7.68;5.50;;;;;;;6.80;85.98;101295.94;4941184;28;20034;-79
2022/12/08 03:36:23;;;;;;;10.07;6.03;;;;;;;6.82;85.82;101274.44;4940666;28;20154;-79
2022/12/08 03:38:51;;;;;;;7.85;5.38;;;;;;;6.90;85.57;101300.00;4940826;28;20489;-80
2022/12/08 03:41:17;;;;;;;9.30;5.13;;;;;;;6.74;85.93;101275.50;4941551;28;20041;-79
2022/12/08 03:43:52;;;;;;;10.02;6.07;;;;;;;6.76;86.33;101289.16;4940706;28;20027;-79
2022/12/08 03:46:19;;;;;;;7.72;4.45;;;;;;;6.73;86.24;101273.81;4941900;28;20026;-79
2022/12/08 03:48:44;;;;;;;8.65;5.40;;;;;;;6.51;86.48;101238.28;4940817;28;20049;-79
2022/12/08 03:51:10;;;;;;;7.68;4.32;;;;;;;6.89;86.46;101306.03;4956589;28;20027;-79
2022/12/08 03:53:35;;;;;;;6.70;4.90;;;;;;;6.98;85.19;101303.25;4924706;28;20433;-79
2022/12/08 03:56:10;;;;;;;9.35;5.13;;;;;;;6.85;85.53;101299.22;4940376;28;20038;-79
2022/12/08 03:58:36;;;;;;;8.60;4.93;;;;;;;6.79;85.50;101307.09;4956129;28;20031;-79
2022/12/08 04:01:01;;;;;;;9.45;4.97;;;;;;;6.67;86.00;101289.34;4956083;28;20049;-79
2022/12/08 04:03:27;;;;;;;10.43;6.72;;;;;;;6.68;86.64;101302.16;4956412;28;20081;-79
2022/12/08 04:05:52;;;;;;;10.95;5.60;;;;;;;6.73;86.57;101299.50;4954896;28;20035;-79
2022/12/08 04:08:17;;;;;;;8.95;6.07;;;;;;;6.74;86.59;101301.19;4940039;28;20069;-79
2022/12/08 04:10:43;;;;;;;7.20;5.13;;;;;;;6.77;86.54;101307.13;4940245;28;20058;-80
2022/12/08 04:13:08;;;;;;;13.38;6.82;;;;;;;6.51;86.52;101260.59;4956110;28;20042;-79
2022/12/08 04:15:34;;;;;;;7.32;5.85;;;;;;;6.75;86.23;101310.59;4956060;28;20082;-79
2022/12/08 04:17:59;;;;;;;11.20;5.53;;;;;;;6.64;86.12;101295.41;4939880;28;20050;-78
2022/12/08 04:20:25;;;;;;;7.60;4.82;;;;;;;6.87;85.76;101312.91;4956077;28;20066;-79
2022/12/08 04:22:50;;;;;;;9.23;3.78;;;;;;;6.86;85.69;101300.91;4939288;28;20496;-79
2022/12/08 04:25:16;;;;;;;10.65;5.82;;;;;;;6.90;85.59;101302.56;4939812;28;20077;-79
2022/12/08 04:27:41;;;;;;;10.50;6.05;;;;;;;6.71;85.18;101270.44;4955700;28;20417;-79
2022/12/08 04:30:07;;;;;;;11.98;5.82;;;;;;;6.80;84.77;101281.34;4955874;28;20023;-79
2022/12/08 04:32:33;;;;;;;10.73;4.88;;;;;;;7.08;85.26;101311.56;4939892;28;20424;-79
2022/12/08 04:34:58;;;;;;;12.73;5.10;;;;;;;6.96;85.06;101297.25;4972777;28;20034;-79
2022/12/08 04:37:24;;;;;;;9.80;5.90;;;;;;;7.12;84.68;101315.75;4939683;28;20030;-79
2022/12/08 04:39:49;;;;;;;10.93;6.53;;;;;;;7.09;84.35;101310.69;4940809;28;20039;-79
2022/12/08 04:42:14;;;;;;;11.50;5.28;;;;;;;7.15;84.34;101324.25;4971398;28;20576;-79
2022/12/08 04:44:40;;;;;;;10.73;5.40;;;;;;;7.05;84.20;101302.19;4939355;28;20038;-79
2022/12/08 04:47:05;;;;;;;11.90;6.35;;;;;;;7.05;84.76;101301.34;4923593;28;20485;-78
2022/12/08 04:49:31;;;;;;;10.70;6.05;;;;;;;7.11;84.98;101296.91;4955406;28;20078;-78
2022/12/08 04:51:56;;;;;;;9.35;7.10;;;;;;;7.17;84.75;101299.31;4954589;28;20777;-78
2022/12/08 04:54:22;;;;;;;13.10;7.47;;;;;;;7.27;84.45;101299.09;4939707;28;20124;-79
2022/12/08 04:56:47;;;;;;;12.98;6.70;;;;;;;7.43;83.52;101303.84;4972711;28;20038;-79
2022/12/08 04:59:13;;;;;;;13.18;8.38;;;;;;;7.49;83.28;101310.56;4939054;28;20508;-79
2022/12/08 05:01:38;;;;;;;15.32;7.55;;;;;;;7.36;83.02;101316.88;4954776;28;20031;-80
2022/12/08 05:04:04;;;;;;;15.40;7.22;;;;;;;7.30;83.76;101332.50;4938999;28;20034;-79
2022/12/08 05:06:29;;;;;;;9.52;6.53;;;;;;;7.20;83.87;101311.28;4938891;28;20038;-79
2022/12/08 05:08:55;;;;;;;11.57;6.35;;;;;;;7.17;83.80;101309.59;4938945;28;20035;-77
2022/12/08 05:11:20;;;;;;;11.82;5.75;;;;;;;7.29;83.87;101328.25;4937520;28;20060;-76
2022/12/08 05:13:46;;;;;;;9.63;6.00;;;;;;;7.24;84.67;101327.50;4953444;28;20046;-76
2022/12/08 05:16:12;;;;;;;12.30;7.88;;;;;;;7.24;84.04;101319.75;4937543;28;20077;-76
2022/12/08 05:18:38;;;;;;;10.45;7.50;;;;;;;7.14;84.44;101307.13;4953573;28;20043;-76
2022/12/08 05:21:04;;;;;;;19.10;11.32;;;;;;;7.09;84.97;101306.41;4936672;28;20033;-81
2022/12/08 05:23:29;;;;;;;13.95;7.90;;;;;;;7.04;85.09;101305.66;4938529;28;20424;-89
2022/12/08 05:25:55;;;;;;;15.45;7.85;;;;;;;7.19;84.58;101325.88;4939035;28;20041;-89
2022/12/08 05:28:20;;;;;;;16.65;8.18;;;;;;;7.11;85.09;101321.78;4951776;28;20027;-89
2022/12/08 05:30:46;;;;;;;15.40;8.32;;;;;;;7.12;84.93;101321.75;4937177;28;20463;-85
2022/12/08 05:33:11;;;;;;;14.00;8.15;;;;;;;6.85;85.20;101281.22;4957686;28;20034;-83
2022/12/08 05:35:37;;;;;;;15.40;7.93;;;;;;;7.02;84.95;101325.41;4973591;28;20034;-85
2022/12/08 05:38:02;;;;;;;15.18;8.90;;;;;;;6.87;85.68;101308.59;4973044;28;20517;-88
2022/12/08 05:40:28;;;;;;;12.93;6.80;;;;;;;7.41;86.98;101327.94;4919246;29;20027;-83
2022/12/08 05:42:53;;;;;;;15.82;9.10;;;;;;;7.41;85.00;101341.66;4935807;29;20082;-78
2022/12/08 05:45:19;;;;;;;14.98;7.95;;;;;;;7.30;84.19;101335.06;4935034;29;20027;-84
2022/12/08 05:47:44;;;;;;;13.85;6.75;;;;;;;7.16;84.85;101320.78;4952087;29;20031;-76
2022/12/08 05:50:10;;;;;;;15.35;9.25;;;;;;;7.28;84.74;101345.41;4935272;29;20032;-76
2022/12/08 05:52:35;;;;;;;19.35;10.25;;;;;;;7.19;84.38;101337.91;4935143;29;20042;-78
2022/12/08 05:55:01;;;;;;;14.90;9.10;;;;;;;7.17;84.87;101334.50;4952591;29;20039;-86
2022/12/08 05:57:26;;;;;;;11.02;6.78;;;;;;;6.90;84.98;101297.41;4935233;29;20042;-85
2022/12/08 05:59:52;;;;;;;9.20;6.57;;;;;;;7.15;84.99;101346.56;4934745;29;20035;-83
2022/12/08 06:02:18;;;;;;;9.75;7.35;;;;;;;6.85;85.48;101294.09;4965287;28;20061;-82
2022/12/08 06:04:43;;;;;;;22.55;8.90;;;;;;;7.14;85.32;101332.84;4957614;28;20030;-85
2022/12/08 06:07:09;;;;;;;8.95;5.35;;;;;;;7.15;84.46;101334.53;4989686;28;20026;-81
2022/12/08 06:09:34;;;;;;;13.70;6.22;;;;;;;7.11;84.15;101339.81;4941394;28;20535;-86
2022/12/08 06:12:00;;;;;;;10.75;7.82;;;;;;;7.11;84.50;101344.94;4941387;28;20081;-81
2022/12/08 06:14:26;;;;;;;13.75;6.47;;;;;;;7.05;85.30;101345.94;4947294;28;20552;-80
2022/12/08 06:16:51;;;;;;;10.70;7.15;;;;;;;6.78;85.32;101308.81;4956575;28;20138;-80
2022/12/08 06:19:17;;;;;;;11.15;7.38;;;;;;;6.97;85.30;101346.97;4963138;28;20042;-90
2022/12/08 06:21:42;;;;;;;13.80;7.15;;;;;;;7.06;86.16;101365.63;4937883;29;20035;-86
2022/12/08 06:24:08;;;;;;;13.95;7.35;;;;;;;7.08;85.86;101357.88;4969709;28;20042;-89
2022/12/08 06:26:34;;;;;;;18.02;8.98;;;;;;;7.09;84.90;101363.00;4957304;28;20069;-85
2022/12/08 06:29:00;;;;;;;14.27;8.30;;;;;;;7.06;85.20;101368.19;4959388;28;20030;-91
2022/12/08 06:31:26;;;;;;;15.88;8.98;;;;;;;6.99;85.50;101369.25;4944910;28;20439;-86
2022/12/08 06:33:52;;;;;;;17.77;9.70;;;;;;;7.03;85.75;101375.16;4955437;28;20480;-86
2022/12/08 06:36:19;;;;;;;16.50;7.68;;;;;;;7.02;86.48;101384.59;4973711;28;20108;-79
2022/12/08 06:38:44;;;;;;;15.43;8.50;;;;;;;6.86;86.39;101368.63;4973602;28;20496;-79
2022/12/08 06:41:10;;;;;;;16.42;8.20;;;;;;;6.87;86.55;101366.91;4957554;28;20019;-79
2022/12/08 06:43:36;;;;;;;11.48;7.22;;;;;;;6.86;86.81;101390.94;4957021;28;20038;-79
2022/12/08 06:46:04;;;;;;;7.90;5.35;;;;;;;6.93;86.67;101400.22;4943213;28;20038;-89
2022/12/08 06:48:29;;;;;;;9.23;6.07;;;;;;;6.67;86.30;101356.22;4956929;28;20053;-87
2022/12/08 06:50:55;;;;;;;12.00;7.35;;;;;;;6.90;86.50;101390.00;4979754;28;20441;-84
2022/12/08 06:53:20;;;;;;;13.60;7.63;;;;;;;6.95;86.27;101392.47;4974580;28;20065;-91
2022/12/08 06:55:49;;;;;;;15.07;7.40;;;;;;;7.07;85.70;101395.63;4927270;28;20035;-92
2022/12/08 06:58:15;;;;;;;12.23;7.90;;;;;;;6.99;85.45;101374.38;4937151;29;20098;-88
2022/12/08 07:00:40;;;;;;;13.30;6.78;;;;;;;6.99;85.48;101373.53;4929588;28;20106;-85
2022/12/08 07:03:07;;;;;;;13.43;6.80;;;;;;;6.85;84.98;101348.09;4959138;28;20100;-88
2022/12/08 07:05:33;;;;;;;20.08;6.90;;;;;;;7.19;84.70;101386.81;4975795;28;20030;-81
2022/12/08 07:07:59;;;;;;;11.85;7.47;;;;;;;7.18;84.82;101383.38;4959800;28;20496;-82
2022/12/08 07:10:24;;;;;;;12.52;7.90;;;;;;;7.22;84.60;101389.28;4959752;28;20041;-79
2022/12/08 07:12:50;;;;;;;11.02;6.93;;;;;;;7.29;84.02;101388.28;4975645;28;20038;-79
2022/12/08 07:15:15;;;;;;;13.98;8.88;;;;;;;7.26;84.61;101400.34;4944048;28;20034;-81
2022/12/08 07:17:41;;;;;;;13.27;6.88;;;;;;;7.22;85.37;101402.16;4965317;28;20376;-82
2022/12/08 07:20:07;;;;;;;15.35;6.15;;;;;;;7.26;84.44;101384.91;4972246;28;20062;-90
2022/12/08 07:22:32;;;;;;;11.90;7.70;;;;;;;7.41;83.78;101394.88;4939913;28;20046;-85
2022/12/08 07:24:57;;;;;;;10.63;6.78;;;;;;;7.24;84.82;101368.66;4937300;29;20082;-83
2022/12/08 07:27:23;;;;;;;10.52;6.25;;;;;;;7.28;83.77;101380.59;4930704;28;20397;-86
2022/12/08 07:29:48;;;;;;;12.63;6.82;;;;;;;7.24;82.65;101371.25;4975610;28;20065;-84
2022/12/08 07:32:14;;;;;;;11.02;6.72;;;;;;;7.41;82.92;101393.13;4957382;28;20062;-81
2022/12/08 07:34:39;;;;;;;9.30;5.55;;;;;;;7.34;82.85;101395.88;4971177;28;20402;-84
2022/12/08 07:37:05;;;;;;;10.82;5.75;;;;;;;7.41;82.88;101387.13;4924246;28;20031;-84
2022/12/08 07:39:30;;;;;;;11.55;7.20;;;;;;;7.45;84.12;101401.63;4922655;28;20481;-78
2022/12/08 07:41:56;;;;;;;21.67;11.52;;;;;;;7.37;84.01;101403.53;4938441;28;20112;-81
2022/12/08 07:44:21;;;;;;;24.90;11.90;;;;;;;7.40;84.14;101406.03;4972286;28;20037;-88
2022/12/08 07:46:47;;;;;;;13.65;7.80;;;;;;;7.23;84.03;101372.97;4958342;28;20100;-84
2022/12/08 07:49:12;;;;;;;11.52;8.85;;;;;;;7.44;84.08;101402.50;4959671;28;20034;-83
2022/12/08 07:51:38;;;;;;;13.35;7.25;;;;;;;7.42;83.42;101399.97;4959125;28;20543;-90
2022/12/08 07:54:04;;;;;;;13.60;7.05;;;;;;;7.51;83.36;101403.22;4943353;28;20037;-86
2022/12/08 07:56:29;;;;;;;14.23;5.40;;;;;;;7.51;83.11;101405.78;4979050;28;20026;-92
2022/12/08 07:58:54;;;;;;;19.40;7.72;;;;;;;7.46;83.52;101401.56;4924329;28;20026;-87
2022/12/08 08:01:21;;;;;;;13.15;8.40;;;;;;;7.60;82.25;101403.84;4926516;28;20476;-86
2022/12/08 08:03:46;;;;;;;22.95;11.90;;;;;;;7.48;82.28;101388.69;4955468;28;20030;-86
2022/12/08 08:06:12;;;;;;;21.08;11.38;;;;;;;7.50;83.36;101397.22;4964279;28;20042;-92
2022/12/08 08:08:37;;;;;;;16.80;8.57;;;;;;;7.50;83.18;101402.38;4926083;28;20090;-84
2022/12/08 08:11:06;;;;;;;18.42;9.10;;;;;;;7.41;83.51;101394.88;4956326;28;20038;-89
2022/12/08 08:13:31;;;;;;;18.58;9.65;;;;;;;7.52;83.57;101416.06;4954667;28;20031;-83
2022/12/08 08:16:05;;;;;;;23.50;9.52;;;;;;;7.73;87.56;101418.09;4947464;28;20061;-80
2022/12/08 08:18:30;;;;;;;28.55;8.98;;;;;;;7.65;84.66;101414.84;4935870;28;20110;-80
2022/12/08 08:20:56;;;;;;;18.10;9.27;;;;;;;7.70;83.27;101419.91;4954450;28;20026;-86
2022/12/08 08:23:21;;;;;;;21.52;9.25;;;;;;;7.64;82.86;101420.91;4944959;28;20589;-79
2022/12/08 08:25:47;;;;;;;23.98;9.77;;;;;;;7.65;82.80;101419.16;4971291;28;20041;-85
2022/12/08 08:28:12;;;;;;;16.10;8.75;;;;;;;7.36;82.34;101368.38;4940255;28;20038;-79
2022/12/08 08:30:38;;;;;;;16.77;10.25;;;;;;;7.72;82.58;101423.28;4954766;28;20027;-80
2022/12/08 08:33:03;;;;;;;21.55;11.98;;;;;;;7.62;82.27;101398.66;4936863;29;20029;-80
2022/12/08 08:35:29;;;;;;;22.27;11.30;;;;;;;7.67;82.18;101410.53;4942831;28;20019;-79
2022/12/08 08:37:55;;;;;;;17.48;9.45;;;;;;;7.70;82.40;101400.16;4954241;28;20031;-83
2022/12/08 08:40:20;;;;;;;15.55;10.32;;;;;;;7.75;82.51;101400.88;4946679;28;20023;-78
2022/12/08 08:42:46;;;;;;;22.10;10.60;;;;;;;7.81;82.12;101405.03;4970350;28;20473;-89
2022/12/08 08:45:11;;;;;;;23.27;12.48;;;;;;;7.88;81.70;101395.44;4938311;28;20042;-83
2022/12/08 08:47:36;;;;;;;20.38;11.23;;;;;;;7.83;81.77;101389.53;4929787;28;20484;-80
2022/12/08 08:50:02;;;;;;;17.75;9.80;;;;;;;7.90;81.25;101396.25;4942017;28;20038;-83
2022/12/08 08:52:28;;;;;;;29.98;17.80;;;;;;;7.78;81.46;101388.81;4959014;28;20109;-79
2022/12/08 08:54:53;;;;;;;33.65;19.27;;;;;;;7.95;81.54;101407.25;4956489;28;20034;-81
2022/12/08 08:57:19;;;;;;;14.70;8.32;;;;;;;7.94;80.70;101403.00;4961518;28;20027;-86
2022/12/08 08:59:44;;;;;;;16.83;10.73;;;;;;;7.93;80.97;101406.47;4935786;28;20030;-82
2022/12/08 09:02:14;;;;;;;25.27;12.00;;;;;;;7.90;81.25;101396.25;4947851;28;20031;-85
2022/12/08 09:04:40;;;;;;;22.35;11.00;;;;;;;7.80;80.96;101385.31;4954147;28;20421;-77
2022/12/08 09:07:05;;;;;;;23.65;11.88;;;;;;;7.86;81.31;101405.75;4955697;28;20023;-84
2022/12/08 09:09:31;;;;;;;14.18;10.00;;;;;;;7.93;81.05;101396.16;4955245;28;20027;-85
2022/12/08 09:11:56;;;;;;;16.42;10.07;;;;;;;7.99;80.90;101385.69;4953923;28;20035;-80
2022/12/08 09:14:22;;;;;;;22.17;10.45;;;;;;;7.87;80.88;101363.69;4928824;28;20057;-81
2022/12/08 09:16:48;;;;;;;15.93;9.77;;;;;;;8.04;80.57;101379.53;4970688;28;20547;-86
2022/12/08 09:19:13;;;;;;;22.33;8.50;;;;;;;8.08;79.92;101376.88;4922419;28;20493;-87
2022/12/08 09:21:39;;;;;;;16.95;8.93;;;;;;;8.06;79.93;101358.84;4927127;28;20038;-86
2022/12/08 09:24:05;;;;;;;10.98;7.10;;;;;;;8.05;79.63;101357.16;4948664;28;20444;-87
2022/12/08 09:26:30;;;;;;;13.52;8.35;;;;;;;7.98;79.74;101368.56;4950077;28;20496;-87
2022/12/08 09:28:56;;;;;;;15.90;7.47;;;;;;;8.03;80.75;101382.13;4954017;28;20440;-84
2022/12/08 09:31:21;;;;;;;15.18;7.93;;;;;;;7.87;80.69;101335.34;4957150;28;20113;-84
2022/12/08 09:33:50;;;;;;;19.77;8.82;;;;;;;8.10;80.47;101370.78;4943927;28;20496;-81
2022/12/08 09:36:15;;;;;;;15.93;8.35;;;;;;;8.05;80.28;101364.91;4954082;28;20027;-83
2022/12/08 09:38:41;;;;;;;23.80;10.25;;;;;;;8.20;80.58;101373.97;4936020;28;20078;-79
2022/12/08 09:41:17;;;;;;;19.55;7.50;;;;;;;8.12;79.95;101370.75;4949686;28;20031;-88
2022/12/08 09:44:20;;;;;;;26.10;11.25;;;;;;;8.16;80.58;101370.63;4949138;28;20045;-81
2022/12/08 09:46:46;;;;;;;18.45;9.93;;;;;;;8.05;79.79;101352.03;4968351;28;20027;-91
2022/12/08 09:49:14;;;;;;;12.43;7.90;;;;;;;8.14;80.14;101366.38;4926419;28;20038;-77
2022/12/08 09:51:40;;;;;;;14.23;7.82;;;;;;;8.45;87.29;101353.53;4934889;29;20031;-79
2022/12/08 09:54:07;;;;;;;15.82;9.05;;;;;;;8.67;80.17;101358.94;4940001;28;20534;-79
2022/12/08 09:56:35;;;;;;;19.60;9.32;;;;;;;8.51;77.53;101346.47;4922028;28;20819;-79
2022/12/08 09:59:20;;;;;;;13.95;7.75;;;;;;;8.53;78.42;101357.56;4953408;28;20070;-87
2022/12/08 10:01:45;;;;;;;15.98;8.23;;;;;;;8.43;78.19;101342.41;4953589;28;20066;-81
2022/12/08 10:04:30;;;;;;;15.43;8.90;;;;;;;8.35;79.25;101340.03;4943909;29;20055;-85
2022/12/08 10:07:16;;;;;;;18.73;8.73;;;;;;;8.15;79.34;101309.66;4956309;28;20067;-79
2022/12/08 10:09:49;;;;;;;24.17;10.20;;;;;;;8.31;79.82;101341.84;4943335;28;20025;-78
2022/12/08 10:12:35;;;;;;;18.40;10.32;;;;;;;8.18;79.31;101322.47;4974959;28;20039;-79
2022/12/08 10:15:27;;;;;;;15.80;8.38;;;;;;;8.32;79.08;101342.69;4959351;28;20038;-78
2022/12/08 10:17:53;;;;;;;17.52;8.48;;;;;;;8.20;79.02;101317.25;4951309;28;20054;-87
2022/12/08 10:20:23;;;;;;;17.75;9.00;;;;;;;8.20;80.05;101336.16;4960218;28;20034;-78
2022/12/08 10:22:56;;;;;;;18.65;8.02;;;;;;;8.17;80.19;101328.50;4942873;28;20067;-83
2022/12/08 10:25:34;;;;;;;15.77;7.85;;;;;;;8.00;79.64;101299.78;4930359;28;20042;-87
2022/12/08 10:27:59;;;;;;;17.25;7.82;;;;;;;8.19;79.13;101331.03;4949842;28;20413;-87
2022/12/08 10:30:25;;;;;;;18.65;8.70;;;;;;;8.21;79.37;101314.63;4952816;28;20031;-83
2022/12/08 10:32:51;;;;;;;20.13;9.07;;;;;;;8.22;79.37;101316.31;4939001;28;20035;-86
2022/12/08 10:35:18;;;;;;;12.05;7.45;;;;;;;8.20;79.14;101307.78;4927635;28;20030;-84
2022/12/08 10:37:58;;;;;;;21.27;8.73;;;;;;;8.16;78.71;101311.34;4928280;29;20425;-82
2022/12/08 10:40:23;;;;;;;18.83;9.02;;;;;;;8.16;79.89;101310.47;4956997;28;20031;-88
2022/12/08 10:42:51;;;;;;;13.70;8.27;;;;;;;8.23;79.65;101315.44;4953818;28;20027;-88
2022/12/08 10:45:22;;;;;;;12.07;6.03;;;;;;;8.16;79.55;101301.06;4924866;28;20085;-79
2022/12/08 10:48:14;;;;;;;18.92;8.18;;;;;;;8.21;79.62;101309.47;4956762;28;20094;-80
2022/12/08 10:50:41;;;;;;;21.13;9.98;;;;;;;8.21;79.44;101303.50;4942031;28;20030;-77
2022/12/08 10:53:07;;;;;;;22.42;8.20;;;;;;;8.17;79.56;101301.91;4940642;28;20486;-82
2022/12/08 10:56:02;;;;;;;11.90;6.47;;;;;;;8.21;80.42;101308.63;4974486;28;20398;-80
2022/12/08 10:58:34;;;;;;;14.13;7.18;;;;;;;8.30;79.68;101313.53;4972499;28;20039;-81
2022/12/08 11:01:19;;;;;;;;;;;;;;;8.20;79.50;101318.09;4957766;28;20030;-80
2022/12/08 11:03:48;;;;;;;10.88;6.85;;;;;;;8.20;80.03;101312.94;4956781;28;19914;-91
2022/12/08 11:06:24;;;;;;;11.75;7.35;;;;;;;8.23;79.88;101305.13;4940354;28;20034;-83
2022/12/08 11:08:54;;;;;;;12.65;7.10;;;;;;;8.25;80.22;101305.91;4926222;28;20532;-91
2022/12/08 11:11:21;;;;;;;15.60;7.55;;;;;;;8.22;79.05;101300.84;4940669;28;20034;-86
2022/12/08 11:13:47;;;;;;;24.15;13.13;;;;;;;8.24;78.67;101293.91;4941025;28;20026;-92
2022/12/08 11:16:14;;;;;;;23.85;9.90;;;;;;;8.19;78.73;101295.81;4959776;28;20037;-90
2022/12/08 11:18:45;;;;;;;14.30;6.55;;;;;;;8.29;78.03;101299.81;4943161;28;20145;-82
2022/12/08 11:21:16;;;;;;;20.20;10.20;;;;;;;8.13;78.61;101275.34;4959788;28;20405;-89
2022/12/08 11:23:45;;;;;;;18.60;11.02;;;;;;;8.30;79.35;101292.91;4976436;28;20030;-84
2022/12/08 11:26:30;;;;;;;18.23;8.80;;;;;;;8.25;79.28;101287.03;4960188;28;20037;-81
2022/12/08 11:28:55;;;;;;;10.77;6.57;;;;;;;8.09;79.50;101242.00;4959358;28;20032;-81
2022/12/08 11:31:29;;;;;;;14.32;7.03;;;;;;;8.27;79.30;101286.13;4959657;28;20031;-85
2022/12/08 11:33:55;;;;;;;19.50;9.63;;;;;;;8.38;79.03;101297.88;4976207;28;20073;-81
2022/12/08 11:36:21;;;;;;;13.82;10.30;;;;;;;8.27;79.54;101280.97;4959809;28;20026;-85